sensor_id;sensor_type;location;lat;lon;timestamp;P1;durP1;ratioP1;P2;durP2;ratioP2
19830;SDS011;10076;52.008;4.708;2024-02-26T00:01:36;27.97;;;25.77;;
19830;SDS011;10076;52.008;4.708;2024-02-26T00:04:01;27.30;;;25.30;;
19830;SDS011;10076;52.008;4.708;2024-02-26T00:06:27;27.87;;;25.87;;
19830;SDS011;10076;52.008;4.708;2024-02-26T00:08:53;27.20;;;25.20;;
19830;SDS011;10076;52.008;4.708;2024-02-26T00:11:18;26.80;;;24.80;;
19830;SDS011;10076;52.008;4.708;2024-02-26T00:13:43;27.07;;;25.17;;
19830;SDS011;10076;52.008;4.708;2024-02-26T00:16:09;27.70;;;25.60;;
19830;SDS011;10076;52.008;4.708;2024-02-26T00:18:34;27.80;;;25.67;;
19830;SDS011;10076;52.008;4.708;2024-02-26T00:20:59;27.43;;;25.33;;
19830;SDS011;10076;52.008;4.708;2024-02-26T00:23:25;27.23;;;25.20;;
19830;SDS011;10076;52.008;4.708;2024-02-26T00:25:51;27.20;;;25.20;;
19830;SDS011;10076;52.008;4.708;2024-02-26T00:28:17;27.37;;;25.37;;
19830;SDS011;10076;52.008;4.708;2024-02-26T00:30:44;27.07;;;24.97;;
19830;SDS011;10076;52.008;4.708;2024-02-26T00:33:10;27.73;;;25.77;;
19830;SDS011;10076;52.008;4.708;2024-02-26T00:35:35;28.10;;;26.10;;
19830;SDS011;10076;52.008;4.708;2024-02-26T00:38:00;27.47;;;25.57;;
19830;SDS011;10076;52.008;4.708;2024-02-26T00:40:27;27.17;;;25.17;;
19830;SDS011;10076;52.008;4.708;2024-02-26T00:42:52;27.37;;;25.37;;
19830;SDS011;10076;52.008;4.708;2024-02-26T00:45:17;28.70;;;26.37;;
19830;SDS011;10076;52.008;4.708;2024-02-26T00:47:43;28.37;;;26.37;;
19830;SDS011;10076;52.008;4.708;2024-02-26T00:50:10;27.53;;;25.60;;
19830;SDS011;10076;52.008;4.708;2024-02-26T00:52:35;27.87;;;25.87;;
19830;SDS011;10076;52.008;4.708;2024-02-26T00:55:01;27.27;;;25.27;;
19830;SDS011;10076;52.008;4.708;2024-02-26T00:57:27;28.43;;;26.40;;
19830;SDS011;10076;52.008;4.708;2024-02-26T00:59:52;27.77;;;25.67;;
19830;SDS011;10076;52.008;4.708;2024-02-26T01:02:20;28.20;;;26.17;;
19830;SDS011;10076;52.008;4.708;2024-02-26T01:04:45;28.40;;;26.30;;
19830;SDS011;10076;52.008;4.708;2024-02-26T01:07:10;29.07;;;27.07;;
19830;SDS011;10076;52.008;4.708;2024-02-26T01:09:36;29.37;;;27.27;;
19830;SDS011;10076;52.008;4.708;2024-02-26T01:12:01;27.40;;;25.40;;
19830;SDS011;10076;52.008;4.708;2024-02-26T01:14:27;29.23;;;26.93;;
19830;SDS011;10076;52.008;4.708;2024-02-26T01:16:53;27.90;;;26.00;;
19830;SDS011;10076;52.008;4.708;2024-02-26T01:19:18;28.27;;;26.17;;
19830;SDS011;10076;52.008;4.708;2024-02-26T01:21:43;28.17;;;26.17;;
19830;SDS011;10076;52.008;4.708;2024-02-26T01:24:09;29.37;;;27.37;;
19830;SDS011;10076;52.008;4.708;2024-02-26T01:26:34;29.67;;;27.57;;
19830;SDS011;10076;52.008;4.708;2024-02-26T01:28:59;29.27;;;27.13;;
19830;SDS011;10076;52.008;4.708;2024-02-26T01:31:25;27.10;;;25.20;;
19830;SDS011;10076;52.008;4.708;2024-02-26T01:33:50;29.00;;;26.73;;
19830;SDS011;10076;52.008;4.708;2024-02-26T01:36:16;29.37;;;27.13;;
19830;SDS011;10076;52.008;4.708;2024-02-26T01:38:41;28.90;;;26.83;;
19830;SDS011;10076;52.008;4.708;2024-02-26T01:41:06;29.70;;;27.43;;
19830;SDS011;10076;52.008;4.708;2024-02-26T01:43:32;29.80;;;27.63;;
19830;SDS011;10076;52.008;4.708;2024-02-26T01:45:57;29.20;;;27.10;;
19830;SDS011;10076;52.008;4.708;2024-02-26T01:48:23;29.70;;;27.60;;
19830;SDS011;10076;52.008;4.708;2024-02-26T01:50:48;28.47;;;26.43;;
19830;SDS011;10076;52.008;4.708;2024-02-26T01:53:14;30.53;;;27.90;;
19830;SDS011;10076;52.008;4.708;2024-02-26T01:55:40;28.80;;;26.70;;
19830;SDS011;10076;52.008;4.708;2024-02-26T01:58:06;29.37;;;27.37;;
19830;SDS011;10076;52.008;4.708;2024-02-26T02:00:32;29.30;;;27.30;;
19830;SDS011;10076;52.008;4.708;2024-02-26T02:02:57;30.60;;;28.17;;
19830;SDS011;10076;52.008;4.708;2024-02-26T02:05:23;31.03;;;28.97;;
19830;SDS011;10076;52.008;4.708;2024-02-26T02:07:49;30.97;;;28.77;;
19830;SDS011;10076;52.008;4.708;2024-02-26T02:10:16;30.00;;;27.90;;
19830;SDS011;10076;52.008;4.708;2024-02-26T02:12:43;29.87;;;27.80;;
19830;SDS011;10076;52.008;4.708;2024-02-26T02:15:08;30.00;;;27.90;;
19830;SDS011;10076;52.008;4.708;2024-02-26T02:17:34;30.60;;;28.37;;
19830;SDS011;10076;52.008;4.708;2024-02-26T02:19:59;30.10;;;28.00;;
19830;SDS011;10076;52.008;4.708;2024-02-26T02:22:24;30.63;;;28.43;;
19830;SDS011;10076;52.008;4.708;2024-02-26T02:24:51;29.63;;;27.50;;
19830;SDS011;10076;52.008;4.708;2024-02-26T02:27:17;30.23;;;28.03;;
19830;SDS011;10076;52.008;4.708;2024-02-26T02:29:44;29.73;;;27.63;;
19830;SDS011;10076;52.008;4.708;2024-02-26T02:32:09;30.90;;;28.50;;
19830;SDS011;10076;52.008;4.708;2024-02-26T02:34:35;29.97;;;27.93;;
19830;SDS011;10076;52.008;4.708;2024-02-26T02:37:00;30.23;;;28.23;;
19830;SDS011;10076;52.008;4.708;2024-02-26T02:39:32;31.43;;;29.30;;
19830;SDS011;10076;52.008;4.708;2024-02-26T02:41:58;31.33;;;29.17;;
19830;SDS011;10076;52.008;4.708;2024-02-26T02:44:24;30.50;;;28.40;;
19830;SDS011;10076;52.008;4.708;2024-02-26T02:46:49;31.07;;;28.93;;
19830;SDS011;10076;52.008;4.708;2024-02-26T02:49:15;31.03;;;28.93;;
19830;SDS011;10076;52.008;4.708;2024-02-26T02:51:41;30.77;;;28.60;;
19830;SDS011;10076;52.008;4.708;2024-02-26T02:54:07;31.10;;;29.00;;
19830;SDS011;10076;52.008;4.708;2024-02-26T02:56:32;31.33;;;29.00;;
19830;SDS011;10076;52.008;4.708;2024-02-26T02:58:57;30.03;;;27.83;;
19830;SDS011;10076;52.008;4.708;2024-02-26T03:01:23;30.33;;;28.23;;
19830;SDS011;10076;52.008;4.708;2024-02-26T03:03:48;30.23;;;28.13;;
19830;SDS011;10076;52.008;4.708;2024-02-26T03:06:14;30.57;;;28.37;;
19830;SDS011;10076;52.008;4.708;2024-02-26T03:08:39;30.93;;;28.77;;
19830;SDS011;10076;52.008;4.708;2024-02-26T03:11:06;31.43;;;29.13;;
19830;SDS011;10076;52.008;4.708;2024-02-26T03:13:32;30.57;;;28.47;;
19830;SDS011;10076;52.008;4.708;2024-02-26T03:15:57;30.00;;;27.90;;
19830;SDS011;10076;52.008;4.708;2024-02-26T03:18:22;31.20;;;29.00;;
19830;SDS011;10076;52.008;4.708;2024-02-26T03:20:48;31.63;;;29.33;;
19830;SDS011;10076;52.008;4.708;2024-02-26T03:23:14;31.83;;;29.63;;
19830;SDS011;10076;52.008;4.708;2024-02-26T03:25:42;30.77;;;28.47;;
19830;SDS011;10076;52.008;4.708;2024-02-26T03:28:07;32.50;;;30.20;;
19830;SDS011;10076;52.008;4.708;2024-02-26T03:30:33;31.50;;;29.30;;
19830;SDS011;10076;52.008;4.708;2024-02-26T03:32:58;31.90;;;29.73;;
19830;SDS011;10076;52.008;4.708;2024-02-26T03:35:23;32.57;;;30.27;;
19830;SDS011;10076;52.008;4.708;2024-02-26T03:37:49;30.63;;;28.33;;
19830;SDS011;10076;52.008;4.708;2024-02-26T03:40:16;31.53;;;29.43;;
19830;SDS011;10076;52.008;4.708;2024-02-26T03:42:43;30.80;;;28.50;;
19830;SDS011;10076;52.008;4.708;2024-02-26T03:45:08;31.90;;;29.63;;
19830;SDS011;10076;52.008;4.708;2024-02-26T03:47:34;30.93;;;28.73;;
19830;SDS011;10076;52.008;4.708;2024-02-26T03:49:59;32.10;;;29.80;;
19830;SDS011;10076;52.008;4.708;2024-02-26T03:52:25;32.37;;;29.97;;
19830;SDS011;10076;52.008;4.708;2024-02-26T03:54:50;31.17;;;28.97;;
19830;SDS011;10076;52.008;4.708;2024-02-26T03:57:15;30.13;;;28.00;;
19830;SDS011;10076;52.008;4.708;2024-02-26T03:59:41;29.73;;;27.53;;
19830;SDS011;10076;52.008;4.708;2024-02-26T04:02:06;31.73;;;29.43;;
19830;SDS011;10076;52.008;4.708;2024-02-26T04:04:34;32.00;;;29.70;;
19830;SDS011;10076;52.008;4.708;2024-02-26T04:06:59;32.00;;;29.60;;
19830;SDS011;10076;52.008;4.708;2024-02-26T04:09:25;32.80;;;30.07;;
19830;SDS011;10076;52.008;4.708;2024-02-26T04:11:50;31.53;;;29.20;;
19830;SDS011;10076;52.008;4.708;2024-02-26T04:14:16;32.40;;;30.10;;
19830;SDS011;10076;52.008;4.708;2024-02-26T04:16:41;33.00;;;30.60;;
19830;SDS011;10076;52.008;4.708;2024-02-26T04:19:06;31.97;;;29.67;;
19830;SDS011;10076;52.008;4.708;2024-02-26T04:21:32;32.10;;;29.83;;
19830;SDS011;10076;52.008;4.708;2024-02-26T04:23:57;31.60;;;29.30;;
19830;SDS011;10076;52.008;4.708;2024-02-26T04:26:25;31.57;;;29.27;;
19830;SDS011;10076;52.008;4.708;2024-02-26T04:28:51;32.67;;;30.37;;
19830;SDS011;10076;52.008;4.708;2024-02-26T04:31:17;32.03;;;29.70;;
19830;SDS011;10076;52.008;4.708;2024-02-26T04:33:42;31.03;;;28.73;;
19830;SDS011;10076;52.008;4.708;2024-02-26T04:36:12;32.50;;;30.00;;
19830;SDS011;10076;52.008;4.708;2024-02-26T04:38:39;32.73;;;30.23;;
19830;SDS011;10076;52.008;4.708;2024-02-26T04:41:04;31.67;;;29.13;;
19830;SDS011;10076;52.008;4.708;2024-02-26T04:43:30;30.53;;;28.20;;
19830;SDS011;10076;52.008;4.708;2024-02-26T04:45:55;32.40;;;29.87;;
19830;SDS011;10076;52.008;4.708;2024-02-26T04:48:22;33.17;;;30.67;;
19830;SDS011;10076;52.008;4.708;2024-02-26T04:50:48;33.03;;;30.63;;
19830;SDS011;10076;52.008;4.708;2024-02-26T04:53:13;32.27;;;29.97;;
19830;SDS011;10076;52.008;4.708;2024-02-26T04:55:38;31.70;;;29.37;;
19830;SDS011;10076;52.008;4.708;2024-02-26T04:58:04;30.43;;;28.13;;
19830;SDS011;10076;52.008;4.708;2024-02-26T05:00:29;31.97;;;29.37;;
19830;SDS011;10076;52.008;4.708;2024-02-26T05:02:54;31.20;;;28.70;;
19830;SDS011;10076;52.008;4.708;2024-02-26T05:05:20;32.83;;;30.40;;
19830;SDS011;10076;52.008;4.708;2024-02-26T05:07:45;30.73;;;28.53;;
19830;SDS011;10076;52.008;4.708;2024-02-26T05:10:10;31.63;;;29.23;;
19830;SDS011;10076;52.008;4.708;2024-02-26T05:12:36;29.60;;;27.37;;
19830;SDS011;10076;52.008;4.708;2024-02-26T05:15:02;29.07;;;26.97;;
19830;SDS011;10076;52.008;4.708;2024-02-26T05:17:27;30.23;;;27.23;;
19830;SDS011;10076;52.008;4.708;2024-02-26T05:19:53;30.53;;;28.27;;
19830;SDS011;10076;52.008;4.708;2024-02-26T05:22:18;28.30;;;26.30;;
19830;SDS011;10076;52.008;4.708;2024-02-26T05:24:43;29.90;;;27.70;;
19830;SDS011;10076;52.008;4.708;2024-02-26T05:27:09;30.17;;;27.77;;
19830;SDS011;10076;52.008;4.708;2024-02-26T05:29:35;29.63;;;27.53;;
19830;SDS011;10076;52.008;4.708;2024-02-26T05:32:00;30.87;;;28.57;;
19830;SDS011;10076;52.008;4.708;2024-02-26T05:34:26;31.97;;;29.63;;
19830;SDS011;10076;52.008;4.708;2024-02-26T05:36:51;29.57;;;27.47;;
19830;SDS011;10076;52.008;4.708;2024-02-26T05:39:16;29.97;;;27.77;;
19830;SDS011;10076;52.008;4.708;2024-02-26T05:41:42;31.47;;;29.23;;
19830;SDS011;10076;52.008;4.708;2024-02-26T05:44:08;30.03;;;27.87;;
19830;SDS011;10076;52.008;4.708;2024-02-26T05:46:35;31.20;;;28.80;;
19830;SDS011;10076;52.008;4.708;2024-02-26T05:49:00;34.33;;;31.63;;
19830;SDS011;10076;52.008;4.708;2024-02-26T05:51:26;30.97;;;28.53;;
19830;SDS011;10076;52.008;4.708;2024-02-26T05:53:51;31.30;;;29.00;;
19830;SDS011;10076;52.008;4.708;2024-02-26T05:56:19;30.97;;;28.73;;
19830;SDS011;10076;52.008;4.708;2024-02-26T05:58:45;31.87;;;29.30;;
19830;SDS011;10076;52.008;4.708;2024-02-26T06:01:11;31.27;;;29.13;;
19830;SDS011;10076;52.008;4.708;2024-02-26T06:03:36;33.00;;;30.70;;
19830;SDS011;10076;52.008;4.708;2024-02-26T06:06:01;31.17;;;29.03;;
19830;SDS011;10076;52.008;4.708;2024-02-26T06:08:27;31.53;;;29.03;;
19830;SDS011;10076;52.008;4.708;2024-02-26T06:10:52;34.50;;;32.10;;
19830;SDS011;10076;52.008;4.708;2024-02-26T06:13:17;36.10;;;33.43;;
19830;SDS011;10076;52.008;4.708;2024-02-26T06:15:42;35.13;;;32.47;;
19830;SDS011;10076;52.008;4.708;2024-02-26T06:18:08;37.93;;;35.17;;
19830;SDS011;10076;52.008;4.708;2024-02-26T06:20:33;35.67;;;33.07;;
19830;SDS011;10076;52.008;4.708;2024-02-26T06:22:59;35.73;;;33.20;;
19830;SDS011;10076;52.008;4.708;2024-02-26T06:25:24;34.57;;;31.97;;
19830;SDS011;10076;52.008;4.708;2024-02-26T06:27:50;36.53;;;34.03;;
19830;SDS011;10076;52.008;4.708;2024-02-26T06:30:16;40.37;;;37.60;;
19830;SDS011;10076;52.008;4.708;2024-02-26T06:32:41;39.43;;;36.53;;
19830;SDS011;10076;52.008;4.708;2024-02-26T06:35:07;37.10;;;34.57;;
19830;SDS011;10076;52.008;4.708;2024-02-26T06:37:34;39.53;;;36.87;;
19830;SDS011;10076;52.008;4.708;2024-02-26T06:40:01;41.87;;;38.87;;
19830;SDS011;10076;52.008;4.708;2024-02-26T06:42:29;41.27;;;38.57;;
19830;SDS011;10076;52.008;4.708;2024-02-26T06:44:55;39.83;;;37.03;;
19830;SDS011;10076;52.008;4.708;2024-02-26T06:47:20;41.17;;;38.27;;
19830;SDS011;10076;52.008;4.708;2024-02-26T06:49:46;40.80;;;38.07;;
19830;SDS011;10076;52.008;4.708;2024-02-26T06:52:11;40.00;;;36.87;;
19830;SDS011;10076;52.008;4.708;2024-02-26T06:54:36;38.50;;;35.70;;
19830;SDS011;10076;52.008;4.708;2024-02-26T06:57:02;34.67;;;32.07;;
19830;SDS011;10076;52.008;4.708;2024-02-26T06:59:28;36.77;;;34.07;;
19830;SDS011;10076;52.008;4.708;2024-02-26T07:01:53;36.27;;;33.13;;
19830;SDS011;10076;52.008;4.708;2024-02-26T07:04:19;36.00;;;33.13;;
19830;SDS011;10076;52.008;4.708;2024-02-26T07:06:45;35.10;;;32.00;;
19830;SDS011;10076;52.008;4.708;2024-02-26T07:09:11;35.77;;;32.57;;
19830;SDS011;10076;52.008;4.708;2024-02-26T07:11:37;33.77;;;30.63;;
19830;SDS011;10076;52.008;4.708;2024-02-26T07:14:02;37.53;;;34.50;;
19830;SDS011;10076;52.008;4.708;2024-02-26T07:16:29;35.30;;;32.60;;
19830;SDS011;10076;52.008;4.708;2024-02-26T07:18:54;38.27;;;35.17;;
19830;SDS011;10076;52.008;4.708;2024-02-26T07:21:19;35.83;;;32.70;;
19830;SDS011;10076;52.008;4.708;2024-02-26T07:23:44;33.67;;;30.67;;
19830;SDS011;10076;52.008;4.708;2024-02-26T07:26:10;33.07;;;30.30;;
19830;SDS011;10076;52.008;4.708;2024-02-26T07:28:37;32.93;;;30.33;;
19830;SDS011;10076;52.008;4.708;2024-02-26T07:31:02;36.07;;;33.20;;
19830;SDS011;10076;52.008;4.708;2024-02-26T07:33:28;33.83;;;31.03;;
19830;SDS011;10076;52.008;4.708;2024-02-26T07:35:53;34.30;;;31.23;;
19830;SDS011;10076;52.008;4.708;2024-02-26T07:38:18;34.40;;;31.40;;
19830;SDS011;10076;52.008;4.708;2024-02-26T07:40:44;34.27;;;31.40;;
19830;SDS011;10076;52.008;4.708;2024-02-26T07:43:09;35.27;;;32.20;;
19830;SDS011;10076;52.008;4.708;2024-02-26T07:45:34;32.93;;;30.33;;
19830;SDS011;10076;52.008;4.708;2024-02-26T07:48:01;34.63;;;31.17;;
19830;SDS011;10076;52.008;4.708;2024-02-26T07:50:26;35.33;;;32.57;;
19830;SDS011;10076;52.008;4.708;2024-02-26T07:52:52;33.97;;;31.50;;
19830;SDS011;10076;52.008;4.708;2024-02-26T07:55:18;34.13;;;31.33;;
19830;SDS011;10076;52.008;4.708;2024-02-26T07:57:44;32.57;;;30.07;;
19830;SDS011;10076;52.008;4.708;2024-02-26T08:00:09;33.57;;;30.70;;
19830;SDS011;10076;52.008;4.708;2024-02-26T08:02:38;32.73;;;30.10;;
19830;SDS011;10076;52.008;4.708;2024-02-26T08:05:03;33.67;;;30.73;;
19830;SDS011;10076;52.008;4.708;2024-02-26T08:07:29;33.07;;;30.37;;
19830;SDS011;10076;52.008;4.708;2024-02-26T08:09:55;33.43;;;30.90;;
19830;SDS011;10076;52.008;4.708;2024-02-26T08:12:20;34.27;;;31.67;;
19830;SDS011;10076;52.008;4.708;2024-02-26T08:14:46;33.07;;;30.33;;
19830;SDS011;10076;52.008;4.708;2024-02-26T08:17:11;34.83;;;32.17;;
19830;SDS011;10076;52.008;4.708;2024-02-26T08:19:37;34.40;;;31.53;;
19830;SDS011;10076;52.008;4.708;2024-02-26T08:22:02;33.67;;;31.07;;
19830;SDS011;10076;52.008;4.708;2024-02-26T08:24:28;34.83;;;32.23;;
19830;SDS011;10076;52.008;4.708;2024-02-26T08:26:53;34.50;;;31.67;;
19830;SDS011;10076;52.008;4.708;2024-02-26T08:29:19;34.07;;;31.53;;
19830;SDS011;10076;52.008;4.708;2024-02-26T08:31:44;34.93;;;32.27;;
19830;SDS011;10076;52.008;4.708;2024-02-26T08:34:09;33.30;;;30.80;;
19830;SDS011;10076;52.008;4.708;2024-02-26T08:36:35;32.77;;;30.23;;
19830;SDS011;10076;52.008;4.708;2024-02-26T08:39:00;33.90;;;31.20;;
19830;SDS011;10076;52.008;4.708;2024-02-26T08:41:26;34.07;;;31.47;;
19830;SDS011;10076;52.008;4.708;2024-02-26T08:43:51;32.87;;;30.27;;
19830;SDS011;10076;52.008;4.708;2024-02-26T08:46:16;34.23;;;31.33;;
19830;SDS011;10076;52.008;4.708;2024-02-26T08:48:42;33.57;;;30.77;;
19830;SDS011;10076;52.008;4.708;2024-02-26T08:51:08;31.43;;;28.83;;
19830;SDS011;10076;52.008;4.708;2024-02-26T08:53:34;32.93;;;30.20;;
19830;SDS011;10076;52.008;4.708;2024-02-26T08:56:00;33.80;;;30.83;;
19830;SDS011;10076;52.008;4.708;2024-02-26T08:58:27;33.00;;;30.20;;
19830;SDS011;10076;52.008;4.708;2024-02-26T09:00:53;32.77;;;30.03;;
19830;SDS011;10076;52.008;4.708;2024-02-26T09:03:18;33.73;;;31.13;;
19830;SDS011;10076;52.008;4.708;2024-02-26T09:05:43;34.93;;;32.33;;
19830;SDS011;10076;52.008;4.708;2024-02-26T09:08:08;33.47;;;30.67;;
19830;SDS011;10076;52.008;4.708;2024-02-26T09:10:34;31.03;;;28.63;;
19830;SDS011;10076;52.008;4.708;2024-02-26T09:12:59;31.20;;;28.83;;
19830;SDS011;10076;52.008;4.708;2024-02-26T09:15:24;30.50;;;28.20;;
19830;SDS011;10076;52.008;4.708;2024-02-26T09:17:50;33.30;;;30.90;;
19830;SDS011;10076;52.008;4.708;2024-02-26T09:20:16;32.80;;;29.87;;
19830;SDS011;10076;52.008;4.708;2024-02-26T09:22:45;31.80;;;29.13;;
19830;SDS011;10076;52.008;4.708;2024-02-26T09:25:11;31.73;;;29.43;;
19830;SDS011;10076;52.008;4.708;2024-02-26T09:27:36;31.30;;;28.90;;
19830;SDS011;10076;52.008;4.708;2024-02-26T09:30:01;32.23;;;29.83;;
19830;SDS011;10076;52.008;4.708;2024-02-26T09:32:27;31.87;;;29.47;;
19830;SDS011;10076;52.008;4.708;2024-02-26T09:34:53;31.87;;;29.23;;
19830;SDS011;10076;52.008;4.708;2024-02-26T09:37:18;32.10;;;28.83;;
19830;SDS011;10076;52.008;4.708;2024-02-26T09:39:43;32.00;;;29.30;;
19830;SDS011;10076;52.008;4.708;2024-02-26T09:42:09;33.53;;;31.13;;
19830;SDS011;10076;52.008;4.708;2024-02-26T09:44:39;34.20;;;31.53;;
19830;SDS011;10076;52.008;4.708;2024-02-26T09:47:06;33.93;;;31.33;;
19830;SDS011;10076;52.008;4.708;2024-02-26T09:49:34;32.00;;;29.60;;
19830;SDS011;10076;52.008;4.708;2024-02-26T09:52:00;32.97;;;30.37;;
19830;SDS011;10076;52.008;4.708;2024-02-26T09:54:28;32.23;;;29.77;;
19830;SDS011;10076;52.008;4.708;2024-02-26T09:56:56;33.97;;;31.47;;
19830;SDS011;10076;52.008;4.708;2024-02-26T09:59:25;32.20;;;29.87;;
19830;SDS011;10076;52.008;4.708;2024-02-26T10:01:52;31.53;;;29.13;;
19830;SDS011;10076;52.008;4.708;2024-02-26T10:04:18;29.97;;;27.67;;
19830;SDS011;10076;52.008;4.708;2024-02-26T10:06:45;30.23;;;27.93;;
19830;SDS011;10076;52.008;4.708;2024-02-26T10:09:11;29.20;;;26.83;;
19830;SDS011;10076;52.008;4.708;2024-02-26T10:11:37;32.83;;;30.30;;
19830;SDS011;10076;52.008;4.708;2024-02-26T10:14:03;33.03;;;30.43;;
19830;SDS011;10076;52.008;4.708;2024-02-26T10:16:28;32.03;;;29.63;;
19830;SDS011;10076;52.008;4.708;2024-02-26T10:18:54;31.10;;;28.63;;
19830;SDS011;10076;52.008;4.708;2024-02-26T10:21:20;30.23;;;27.93;;
19830;SDS011;10076;52.008;4.708;2024-02-26T10:23:46;31.90;;;29.40;;
19830;SDS011;10076;52.008;4.708;2024-02-26T10:26:18;29.57;;;27.17;;
19830;SDS011;10076;52.008;4.708;2024-02-26T10:28:44;31.63;;;29.13;;
19830;SDS011;10076;52.008;4.708;2024-02-26T10:31:10;29.63;;;27.43;;
19830;SDS011;10076;52.008;4.708;2024-02-26T10:33:36;30.37;;;28.07;;
19830;SDS011;10076;52.008;4.708;2024-02-26T10:36:06;30.30;;;27.90;;
19830;SDS011;10076;52.008;4.708;2024-02-26T10:38:33;30.90;;;28.40;;
19830;SDS011;10076;52.008;4.708;2024-02-26T10:40:59;31.07;;;28.67;;
19830;SDS011;10076;52.008;4.708;2024-02-26T10:43:27;31.80;;;29.20;;
19830;SDS011;10076;52.008;4.708;2024-02-26T10:45:54;34.07;;;31.53;;
19830;SDS011;10076;52.008;4.708;2024-02-26T10:48:20;31.50;;;29.00;;
19830;SDS011;10076;52.008;4.708;2024-02-26T10:50:46;31.20;;;28.80;;
19830;SDS011;10076;52.008;4.708;2024-02-26T10:53:15;31.23;;;28.83;;
19830;SDS011;10076;52.008;4.708;2024-02-26T10:55:43;31.60;;;28.90;;
19830;SDS011;10076;52.008;4.708;2024-02-26T10:58:13;30.57;;;28.37;;
19830;SDS011;10076;52.008;4.708;2024-02-26T11:00:41;32.87;;;30.50;;
19830;SDS011;10076;52.008;4.708;2024-02-26T11:03:08;31.00;;;28.67;;
19830;SDS011;10076;52.008;4.708;2024-02-26T11:05:35;29.97;;;27.60;;
19830;SDS011;10076;52.008;4.708;2024-02-26T11:08:01;29.43;;;27.13;;
19830;SDS011;10076;52.008;4.708;2024-02-26T11:10:27;29.07;;;26.87;;
19830;SDS011;10076;52.008;4.708;2024-02-26T11:12:55;28.50;;;26.30;;
19830;SDS011;10076;52.008;4.708;2024-02-26T11:15:22;28.07;;;25.97;;
19830;SDS011;10076;52.008;4.708;2024-02-26T11:17:48;27.60;;;25.40;;
19830;SDS011;10076;52.008;4.708;2024-02-26T11:20:13;25.80;;;23.77;;
19830;SDS011;10076;52.008;4.708;2024-02-26T11:22:39;27.40;;;24.90;;
19830;SDS011;10076;52.008;4.708;2024-02-26T11:25:05;26.30;;;23.90;;
19830;SDS011;10076;52.008;4.708;2024-02-26T11:27:34;26.43;;;24.43;;
19830;SDS011;10076;52.008;4.708;2024-02-26T11:30:03;26.87;;;24.57;;
19830;SDS011;10076;52.008;4.708;2024-02-26T11:32:33;28.73;;;26.43;;
19830;SDS011;10076;52.008;4.708;2024-02-26T11:35:00;28.60;;;26.37;;
19830;SDS011;10076;52.008;4.708;2024-02-26T11:37:25;27.03;;;25.03;;
19830;SDS011;10076;52.008;4.708;2024-02-26T11:39:51;28.10;;;25.83;;
19830;SDS011;10076;52.008;4.708;2024-02-26T11:42:17;28.43;;;26.13;;
19830;SDS011;10076;52.008;4.708;2024-02-26T11:44:48;28.87;;;26.50;;
19830;SDS011;10076;52.008;4.708;2024-02-26T11:47:14;26.87;;;24.77;;
19830;SDS011;10076;52.008;4.708;2024-02-26T11:49:43;28.30;;;25.90;;
19830;SDS011;10076;52.008;4.708;2024-02-26T11:52:09;28.23;;;25.90;;
19830;SDS011;10076;52.008;4.708;2024-02-26T11:57:24;28.07;;;25.90;;
19830;SDS011;10076;52.008;4.708;2024-02-26T11:59:56;29.73;;;27.23;;
19830;SDS011;10076;52.008;4.708;2024-02-26T12:05:53;28.63;;;26.43;;
19830;SDS011;10076;52.008;4.708;2024-02-26T12:08:01;30.20;;;27.80;;
19830;SDS011;10076;52.008;4.708;2024-02-26T12:10:32;27.50;;;25.40;;
19830;SDS011;10076;52.008;4.708;2024-02-26T12:13:13;28.83;;;26.60;;
19830;SDS011;10076;52.008;4.708;2024-02-26T12:15:41;29.27;;;26.97;;
19830;SDS011;10076;52.008;4.708;2024-02-26T12:18:17;29.83;;;27.57;;
19830;SDS011;10076;52.008;4.708;2024-02-26T12:20:43;28.87;;;26.77;;
19830;SDS011;10076;52.008;4.708;2024-02-26T12:23:15;29.57;;;27.27;;
19830;SDS011;10076;52.008;4.708;2024-02-26T12:25:43;30.37;;;27.97;;
19830;SDS011;10076;52.008;4.708;2024-02-26T12:28:09;29.70;;;27.40;;
19830;SDS011;10076;52.008;4.708;2024-02-26T12:30:34;28.97;;;26.80;;
19830;SDS011;10076;52.008;4.708;2024-02-26T12:33:00;29.00;;;26.63;;
19830;SDS011;10076;52.008;4.708;2024-02-26T12:35:29;29.57;;;27.20;;
19830;SDS011;10076;52.008;4.708;2024-02-26T12:37:57;28.10;;;26.00;;
19830;SDS011;10076;52.008;4.708;2024-02-26T12:40:23;28.27;;;25.90;;
19830;SDS011;10076;52.008;4.708;2024-02-26T12:42:49;28.03;;;25.73;;
19830;SDS011;10076;52.008;4.708;2024-02-26T12:45:14;28.60;;;26.40;;
19830;SDS011;10076;52.008;4.708;2024-02-26T12:47:41;29.40;;;27.10;;
19830;SDS011;10076;52.008;4.708;2024-02-26T12:50:08;29.63;;;27.40;;
19830;SDS011;10076;52.008;4.708;2024-02-26T12:52:35;28.70;;;26.10;;
19830;SDS011;10076;52.008;4.708;2024-02-26T12:55:02;28.00;;;25.83;;
19830;SDS011;10076;52.008;4.708;2024-02-26T12:57:31;28.93;;;26.80;;
19830;SDS011;10076;52.008;4.708;2024-02-26T12:59:58;29.17;;;26.97;;
19830;SDS011;10076;52.008;4.708;2024-02-26T13:02:28;29.20;;;27.00;;
19830;SDS011;10076;52.008;4.708;2024-02-26T13:04:54;29.13;;;27.03;;
19830;SDS011;10076;52.008;4.708;2024-02-26T13:07:21;31.47;;;28.43;;
19830;SDS011;10076;52.008;4.708;2024-02-26T13:09:47;30.77;;;27.83;;
19830;SDS011;10076;52.008;4.708;2024-02-26T13:12:12;30.50;;;28.00;;
19830;SDS011;10076;52.008;4.708;2024-02-26T13:14:39;30.03;;;27.73;;
19830;SDS011;10076;52.008;4.708;2024-02-26T13:17:04;30.07;;;27.57;;
19830;SDS011;10076;52.008;4.708;2024-02-26T13:19:29;30.80;;;28.40;;
19830;SDS011;10076;52.008;4.708;2024-02-26T13:21:55;31.43;;;29.03;;
19830;SDS011;10076;52.008;4.708;2024-02-26T13:24:21;28.30;;;26.27;;
19830;SDS011;10076;52.008;4.708;2024-02-26T13:26:47;30.57;;;28.27;;
19830;SDS011;10076;52.008;4.708;2024-02-26T13:29:19;30.20;;;28.03;;
19830;SDS011;10076;52.008;4.708;2024-02-26T13:31:44;30.10;;;28.00;;
19830;SDS011;10076;52.008;4.708;2024-02-26T13:34:10;31.10;;;28.90;;
19830;SDS011;10076;52.008;4.708;2024-02-26T13:36:35;29.43;;;27.30;;
19830;SDS011;10076;52.008;4.708;2024-02-26T13:39:00;31.43;;;28.97;;
19830;SDS011;10076;52.008;4.708;2024-02-26T13:41:28;31.27;;;28.97;;
19830;SDS011;10076;52.008;4.708;2024-02-26T13:43:54;30.20;;;28.00;;
19830;SDS011;10076;52.008;4.708;2024-02-26T13:46:19;30.23;;;28.00;;
19830;SDS011;10076;52.008;4.708;2024-02-26T13:48:44;30.57;;;28.27;;
19830;SDS011;10076;52.008;4.708;2024-02-26T13:51:10;30.17;;;27.97;;
19830;SDS011;10076;52.008;4.708;2024-02-26T13:53:35;31.07;;;28.67;;
19830;SDS011;10076;52.008;4.708;2024-02-26T13:56:00;29.50;;;27.50;;
19830;SDS011;10076;52.008;4.708;2024-02-26T13:58:29;26.83;;;24.87;;
19830;SDS011;10076;52.008;4.708;2024-02-26T14:00:54;28.90;;;26.80;;
19830;SDS011;10076;52.008;4.708;2024-02-26T14:03:20;29.90;;;27.73;;
19830;SDS011;10076;52.008;4.708;2024-02-26T14:05:45;27.33;;;25.30;;
19830;SDS011;10076;52.008;4.708;2024-02-26T14:08:11;28.73;;;26.63;;
19830;SDS011;10076;52.008;4.708;2024-02-26T14:10:36;28.57;;;26.57;;
19830;SDS011;10076;52.008;4.708;2024-02-26T14:13:02;28.07;;;26.10;;
19830;SDS011;10076;52.008;4.708;2024-02-26T14:15:28;28.83;;;26.70;;
19830;SDS011;10076;52.008;4.708;2024-02-26T14:17:53;28.03;;;26.03;;
19830;SDS011;10076;52.008;4.708;2024-02-26T14:20:22;26.37;;;24.57;;